VLG2AT EHAM-EGKK
Flight info
| Callsign | VLG2AT |
|---|---|
| Flight time | 0h 50m |
| Altitude | 24000 |
| Route | IDRID L980 ABNED Z344 AMRIV Q63 ARREK Y4 TEBRA |
| Aircraft | A320/M-SDE3FGHIRWY/LB1 |
Departure
| Time | 2026-05-07 10:17 |
|---|---|
| Airport | Amsterdam Airport Schiphol (EHAM) |
Arrival
| Time | 2026-05-07 11:08 |
|---|---|
| Airport | London Gatwick Airport (EGKK) |
| Time | Latitude | Longitude | Altitude | Speed | Heading |
|---|---|---|---|---|---|
| 2026-05-07 09:44 | 52.30394 | 4.76168 | -2 ft | 0 kts | 59° |
| 2026-05-07 09:46 | 52.30394 | 4.76167 | -2 ft | 0 kts | 59° |
| 2026-05-07 10:06 | 52.30389 | 4.76151 | -2 ft | 2 kts | 59° |
| 2026-05-07 10:07 | 52.30379 | 4.76127 | -2 ft | 3 kts | 40° |
| 2026-05-07 10:07 | 52.30378 | 4.76125 | -2 ft | 0 kts | 37° |
| 2026-05-07 10:07 | 52.30370 | 4.76116 | -2 ft | 2 kts | 74° |
| 2026-05-07 10:07 | 52.30373 | 4.76093 | -2 ft | 3 kts | 141° |
| 2026-05-07 10:08 | 52.30378 | 4.76085 | -2 ft | 0 kts | 155° |
| 2026-05-07 10:11 | 52.30365 | 4.76095 | -2 ft | 7 kts | 154° |
| 2026-05-07 10:11 | 52.30324 | 4.76131 | -2 ft | 6 kts | 149° |
| 2026-05-07 10:11 | 52.30284 | 4.76169 | -2 ft | 10 kts | 149° |
| 2026-05-07 10:11 | 52.30226 | 4.76231 | -2 ft | 10 kts | 164° |
| 2026-05-07 10:12 | 52.30172 | 4.76190 | -2 ft | 8 kts | 229° |
| 2026-05-07 10:12 | 52.30124 | 4.76079 | -2 ft | 18 kts | 237° |
| 2026-05-07 10:12 | 52.30062 | 4.75916 | -2 ft | 16 kts | 238° |
| 2026-05-07 10:12 | 52.30007 | 4.75769 | -3 ft | 14 kts | 238° |
| 2026-05-07 10:13 | 52.29955 | 4.75637 | -2 ft | 15 kts | 234° |
| 2026-05-07 10:13 | 52.29855 | 4.75383 | -2 ft | 27 kts | 244° |
| 2026-05-07 10:13 | 52.29890 | 4.75103 | -2 ft | 27 kts | 308° |
| 2026-05-07 10:13 | 52.30009 | 4.74872 | -2 ft | 26 kts | 301° |
| 2026-05-07 10:14 | 52.30132 | 4.74652 | -2 ft | 27 kts | 313° |
| 2026-05-07 10:14 | 52.30190 | 4.74549 | -2 ft | 12 kts | 312° |
| 2026-05-07 10:14 | 52.30224 | 4.74488 | -2 ft | 0 kts | 312° |
| 2026-05-07 10:15 | 52.30242 | 4.74453 | -2 ft | 20 kts | 310° |
| 2026-05-07 10:15 | 52.30345 | 4.74242 | -2 ft | 24 kts | 292° |
| 2026-05-07 10:15 | 52.30286 | 4.74007 | -2 ft | 23 kts | 215° |
| 2026-05-07 10:16 | 52.30201 | 4.73802 | -3 ft | 22 kts | 295° |
| 2026-05-07 10:16 | 52.30338 | 4.73750 | -7 ft | 3 kts | 0° |
| 2026-05-07 10:16 | 52.30345 | 4.73750 | -7 ft | 8 kts | 1° |
| 2026-05-07 10:17 | 52.30661 | 4.73774 | -4 ft | 82 kts | 3° |
| 2026-05-07 10:17 | 52.31449 | 4.73845 | -4 ft | 140 kts | 2° |
| 2026-05-07 10:17 | 52.32537 | 4.73946 | 252 ft | 165 kts | 3° |
| 2026-05-07 10:17 | 52.33713 | 4.74014 | 906 ft | 175 kts | 357° |
| 2026-05-07 10:18 | 52.34955 | 4.73659 | 1496 ft | 194 kts | 354° |
| 2026-05-07 10:18 | 52.36374 | 4.73305 | 2010 ft | 218 kts | 346° |
| 2026-05-07 10:18 | 52.37904 | 4.72504 | 2644 ft | 243 kts | 342° |
| 2026-05-07 10:18 | 52.39533 | 4.71567 | 3576 ft | 252 kts | 342° |
| 2026-05-07 10:19 | 52.41200 | 4.70603 | 4595 ft | 256 kts | 341° |
| 2026-05-07 10:19 | 52.42895 | 4.69633 | 5594 ft | 260 kts | 341° |
| 2026-05-07 10:19 | 52.44546 | 4.68414 | 6574 ft | 263 kts | 324° |
| 2026-05-07 10:19 | 52.45021 | 4.67752 | 6891 ft | 264 kts | 314° |
| 2026-05-07 10:20 | 52.45716 | 4.66411 | 6787 ft | 289 kts | 299° |
| 2026-05-07 10:20 | 52.46195 | 4.62841 | 6249 ft | 349 kts | 269° |
| 2026-05-07 10:21 | 52.45607 | 4.58844 | 6546 ft | 373 kts | 245° |
| 2026-05-07 10:21 | 52.44217 | 4.55307 | 7740 ft | 361 kts | 235° |
| 2026-05-07 10:21 | 52.42871 | 4.52115 | 8974 ft | 324 kts | 236° |
| 2026-05-07 10:21 | 52.41686 | 4.49209 | 9519 ft | 295 kts | 237° |
| 2026-05-07 10:22 | 52.40572 | 4.46447 | 9794 ft | 288 kts | 237° |
| 2026-05-07 10:22 | 52.39463 | 4.43715 | 10009 ft | 288 kts | 237° |
| 2026-05-07 10:22 | 52.38392 | 4.41100 | 10079 ft | 309 kts | 237° |
| 2026-05-07 10:22 | 52.37136 | 4.38050 | 10091 ft | 331 kts | 236° |
| 2026-05-07 10:23 | 52.35821 | 4.34880 | 10449 ft | 341 kts | 236° |
| 2026-05-07 10:23 | 52.34477 | 4.31656 | 11237 ft | 345 kts | 236° |
| 2026-05-07 10:23 | 52.33116 | 4.28404 | 12020 ft | 349 kts | 236° |
| 2026-05-07 10:23 | 52.31736 | 4.25115 | 12798 ft | 352 kts | 236° |
| 2026-05-07 10:24 | 52.30342 | 4.21797 | 13586 ft | 355 kts | 236° |
| 2026-05-07 10:24 | 52.28934 | 4.18456 | 14280 ft | 359 kts | 236° |
| 2026-05-07 10:24 | 52.27679 | 4.15461 | 14896 ft | 362 kts | 236° |
| 2026-05-07 10:24 | 52.26251 | 4.12057 | 15570 ft | 365 kts | 236° |
| 2026-05-07 10:25 | 52.24805 | 4.08626 | 16247 ft | 368 kts | 236° |
| 2026-05-07 10:25 | 52.23343 | 4.05165 | 16893 ft | 372 kts | 236° |
| 2026-05-07 10:25 | 52.21865 | 4.01677 | 17541 ft | 375 kts | 236° |
| 2026-05-07 10:25 | 52.20375 | 3.98163 | 18188 ft | 378 kts | 236° |
| 2026-05-07 10:26 | 52.18871 | 3.94616 | 18758 ft | 382 kts | 236° |
| 2026-05-07 10:26 | 52.17356 | 3.91046 | 19296 ft | 385 kts | 236° |
| 2026-05-07 10:26 | 52.15823 | 3.87440 | 19838 ft | 388 kts | 236° |
| 2026-05-07 10:26 | 52.14283 | 3.83820 | 20384 ft | 390 kts | 236° |
| 2026-05-07 10:27 | 52.12729 | 3.80181 | 20918 ft | 393 kts | 236° |
| 2026-05-07 10:27 | 52.11161 | 3.76514 | 21445 ft | 396 kts | 236° |
| 2026-05-07 10:27 | 52.09584 | 3.72823 | 21965 ft | 399 kts | 236° |
| 2026-05-07 10:27 | 52.08102 | 3.69356 | 22438 ft | 401 kts | 235° |
| 2026-05-07 10:28 | 52.06524 | 3.65673 | 22940 ft | 404 kts | 235° |
| 2026-05-07 10:28 | 52.04891 | 3.61867 | 23451 ft | 406 kts | 235° |
| 2026-05-07 10:28 | 52.03287 | 3.58138 | 23883 ft | 409 kts | 235° |
| 2026-05-07 10:28 | 52.01632 | 3.54299 | 24057 ft | 410 kts | 235° |
| 2026-05-07 10:29 | 52.00008 | 3.50536 | 24096 ft | 415 kts | 235° |
| 2026-05-07 10:29 | 51.98339 | 3.46700 | 24099 ft | 416 kts | 234° |
| 2026-05-07 10:29 | 51.96619 | 3.42846 | 24096 ft | 416 kts | 234° |
| 2026-05-07 10:30 | 51.93181 | 3.35294 | 24103 ft | 416 kts | 233° |
| 2026-05-07 10:30 | 51.92038 | 3.32796 | 24104 ft | 416 kts | 234° |
| 2026-05-07 10:30 | 51.89755 | 3.27806 | 24110 ft | 416 kts | 234° |
| 2026-05-07 10:30 | 51.88032 | 3.24043 | 24106 ft | 416 kts | 234° |
| 2026-05-07 10:31 | 51.86310 | 3.20280 | 24105 ft | 415 kts | 234° |
| 2026-05-07 10:31 | 51.85198 | 3.17767 | 24104 ft | 415 kts | 237° |
| 2026-05-07 10:31 | 51.83360 | 3.12281 | 24100 ft | 415 kts | 243° |
| 2026-05-07 10:31 | 51.82496 | 3.09523 | 24101 ft | 415 kts | 243° |
| 2026-05-07 10:32 | 51.81191 | 3.05371 | 24105 ft | 415 kts | 243° |
| 2026-05-07 10:32 | 51.79878 | 3.01217 | 24099 ft | 415 kts | 243° |
| 2026-05-07 10:32 | 51.78560 | 2.97066 | 24096 ft | 415 kts | 243° |
| 2026-05-07 10:32 | 51.77245 | 2.92931 | 24067 ft | 411 kts | 243° |
| 2026-05-07 10:33 | 51.75949 | 2.88863 | 23539 ft | 405 kts | 243° |
| 2026-05-07 10:33 | 51.74665 | 2.84836 | 22873 ft | 401 kts | 243° |
| 2026-05-07 10:33 | 51.73392 | 2.80854 | 22285 ft | 398 kts | 243° |
| 2026-05-07 10:33 | 51.72190 | 2.77107 | 22077 ft | 398 kts | 243° |
| 2026-05-07 10:34 | 51.70918 | 2.73138 | 22091 ft | 398 kts | 243° |
| 2026-05-07 10:34 | 51.69694 | 2.69130 | 22093 ft | 398 kts | 248° |
| 2026-05-07 10:34 | 51.68813 | 2.64900 | 22098 ft | 398 kts | 256° |
| 2026-05-07 10:34 | 51.68317 | 2.60505 | 22092 ft | 398 kts | 262° |
| 2026-05-07 10:35 | 51.67924 | 2.56094 | 22089 ft | 398 kts | 262° |
| 2026-05-07 10:35 | 51.67524 | 2.51672 | 22095 ft | 398 kts | 261° |
| 2026-05-07 10:35 | 51.67127 | 2.47308 | 22094 ft | 398 kts | 261° |
| 2026-05-07 10:35 | 51.66723 | 2.42895 | 22094 ft | 398 kts | 261° |
| 2026-05-07 10:36 | 51.66317 | 2.38486 | 22093 ft | 398 kts | 261° |
| 2026-05-07 10:36 | 51.65910 | 2.34079 | 22094 ft | 398 kts | 261° |
| 2026-05-07 10:36 | 51.65500 | 2.29671 | 22095 ft | 398 kts | 261° |
| 2026-05-07 10:36 | 51.65088 | 2.25263 | 22090 ft | 398 kts | 261° |
| 2026-05-07 10:37 | 51.64677 | 2.20859 | 22093 ft | 398 kts | 261° |
| 2026-05-07 10:37 | 51.64263 | 2.16453 | 22095 ft | 398 kts | 261° |
| 2026-05-07 10:37 | 51.63848 | 2.12050 | 22076 ft | 398 kts | 261° |
| 2026-05-07 10:37 | 51.63434 | 2.07659 | 21813 ft | 396 kts | 261° |
| 2026-05-07 10:38 | 51.63026 | 2.03277 | 21543 ft | 394 kts | 261° |
| 2026-05-07 10:38 | 51.62627 | 1.98958 | 20993 ft | 389 kts | 261° |
| 2026-05-07 10:38 | 51.62230 | 1.94654 | 20430 ft | 386 kts | 261° |
| 2026-05-07 10:38 | 51.61834 | 1.90398 | 19871 ft | 383 kts | 261° |
| 2026-05-07 10:39 | 51.61254 | 1.86480 | 19357 ft | 380 kts | 251° |
| 2026-05-07 10:39 | 51.60192 | 1.82603 | 18829 ft | 378 kts | 241° |
| 2026-05-07 10:39 | 51.58733 | 1.79115 | 18305 ft | 376 kts | 232° |
| 2026-05-07 10:39 | 51.57016 | 1.75948 | 17715 ft | 374 kts | 229° |
| 2026-05-07 10:40 | 51.55301 | 1.72825 | 17161 ft | 371 kts | 230° |
| 2026-05-07 10:40 | 51.53593 | 1.69718 | 16631 ft | 369 kts | 229° |
| 2026-05-07 10:40 | 51.51897 | 1.66642 | 16116 ft | 366 kts | 229° |
| 2026-05-07 10:40 | 51.50227 | 1.63582 | 15604 ft | 363 kts | 232° |
| 2026-05-07 10:41 | 51.48833 | 1.60241 | 15123 ft | 359 kts | 243° |
| 2026-05-07 10:41 | 51.47833 | 1.56585 | 14633 ft | 356 kts | 251° |
| 2026-05-07 10:41 | 51.46985 | 1.52863 | 14201 ft | 355 kts | 250° |
| 2026-05-07 10:41 | 51.46108 | 1.49158 | 14075 ft | 355 kts | 246° |
| 2026-05-07 10:42 | 51.44837 | 1.45740 | 14091 ft | 357 kts | 237° |
| 2026-05-07 10:42 | 51.43479 | 1.42417 | 14095 ft | 357 kts | 237° |
| 2026-05-07 10:42 | 51.42112 | 1.39087 | 14097 ft | 357 kts | 237° |
| 2026-05-07 10:42 | 51.40760 | 1.35806 | 14095 ft | 357 kts | 237° |
| 2026-05-07 10:43 | 51.39371 | 1.32444 | 14092 ft | 357 kts | 237° |
| 2026-05-07 10:43 | 51.38021 | 1.29177 | 14095 ft | 357 kts | 237° |
| 2026-05-07 10:43 | 51.36647 | 1.25856 | 14092 ft | 357 kts | 237° |
| 2026-05-07 10:43 | 51.35272 | 1.22538 | 14092 ft | 357 kts | 237° |
| 2026-05-07 10:44 | 51.33899 | 1.19231 | 14088 ft | 357 kts | 237° |
| 2026-05-07 10:44 | 51.32525 | 1.15923 | 14092 ft | 357 kts | 237° |
| 2026-05-07 10:44 | 51.31054 | 1.12721 | 14096 ft | 358 kts | 226° |
| 2026-05-07 10:44 | 51.29046 | 1.10392 | 13928 ft | 357 kts | 207° |
| 2026-05-07 10:45 | 51.26751 | 1.08890 | 13374 ft | 356 kts | 202° |
| 2026-05-07 10:45 | 51.24437 | 1.07500 | 12818 ft | 354 kts | 201° |
| 2026-05-07 10:45 | 51.22133 | 1.06125 | 12290 ft | 352 kts | 201° |
| 2026-05-07 10:45 | 51.19842 | 1.04759 | 12081 ft | 352 kts | 201° |
| 2026-05-07 10:46 | 51.17543 | 1.03390 | 12097 ft | 353 kts | 201° |
| 2026-05-07 10:46 | 51.15242 | 1.02019 | 12100 ft | 353 kts | 201° |
| 2026-05-07 10:46 | 51.12940 | 1.00650 | 12106 ft | 353 kts | 201° |
| 2026-05-07 10:46 | 51.10636 | 0.99281 | 12103 ft | 353 kts | 202° |
| 2026-05-07 10:47 | 51.08340 | 0.97893 | 12106 ft | 353 kts | 205° |
| 2026-05-07 10:47 | 51.06275 | 0.95854 | 11811 ft | 346 kts | 223° |
| 2026-05-07 10:47 | 51.04780 | 0.92919 | 11271 ft | 342 kts | 243° |
| 2026-05-07 10:47 | 51.03969 | 0.89398 | 10709 ft | 338 kts | 258° |
| 2026-05-07 10:48 | 51.03446 | 0.85764 | 10156 ft | 338 kts | 258° |
| 2026-05-07 10:48 | 51.02928 | 0.82161 | 9926 ft | 327 kts | 258° |
| 2026-05-07 10:48 | 51.02423 | 0.78712 | 9784 ft | 314 kts | 258° |
| 2026-05-07 10:48 | 51.01936 | 0.75406 | 9647 ft | 302 kts | 258° |
| 2026-05-07 10:49 | 51.01463 | 0.72208 | 9508 ft | 291 kts | 258° |
| 2026-05-07 10:49 | 51.01006 | 0.69132 | 9269 ft | 284 kts | 258° |
| 2026-05-07 10:49 | 51.00556 | 0.66096 | 8923 ft | 281 kts | 259° |
| 2026-05-07 10:49 | 51.00107 | 0.63075 | 8561 ft | 279 kts | 259° |
| 2026-05-07 10:50 | 50.99662 | 0.60087 | 8085 ft | 277 kts | 259° |
| 2026-05-07 10:50 | 50.99219 | 0.57117 | 7705 ft | 276 kts | 259° |
| 2026-05-07 10:50 | 50.98780 | 0.54169 | 7360 ft | 273 kts | 259° |
| 2026-05-07 10:50 | 50.98345 | 0.51251 | 7031 ft | 271 kts | 259° |
| 2026-05-07 10:51 | 50.97910 | 0.48347 | 6964 ft | 270 kts | 259° |
| 2026-05-07 10:51 | 50.97474 | 0.45444 | 6974 ft | 271 kts | 259° |
| 2026-05-07 10:51 | 50.97036 | 0.42539 | 6976 ft | 271 kts | 259° |
| 2026-05-07 10:51 | 50.96894 | 0.41596 | 6977 ft | 270 kts | 259° |
| 2026-05-07 10:52 | 50.96465 | 0.39001 | 6980 ft | 271 kts | 258° |
| 2026-05-07 10:52 | 50.96004 | 0.36096 | 6984 ft | 270 kts | 259° |
| 2026-05-07 10:52 | 50.95578 | 0.33239 | 6988 ft | 259 kts | 260° |
| 2026-05-07 10:53 | 50.95181 | 0.30547 | 6994 ft | 243 kts | 260° |
| 2026-05-07 10:53 | 50.94832 | 0.28061 | 6853 ft | 236 kts | 264° |
| 2026-05-07 10:53 | 50.94896 | 0.25927 | 6337 ft | 240 kts | 290° |
| 2026-05-07 10:53 | 50.95814 | 0.23706 | 6045 ft | 248 kts | 321° |
| 2026-05-07 10:54 | 50.97350 | 0.22534 | 5998 ft | 252 kts | 345° |
| 2026-05-07 10:54 | 50.99006 | 0.21611 | 5987 ft | 253 kts | 328° |
| 2026-05-07 10:54 | 51.00214 | 0.19611 | 5994 ft | 256 kts | 300° |
| 2026-05-07 10:54 | 51.00733 | 0.16953 | 6000 ft | 260 kts | 283° |
| 2026-05-07 10:55 | 51.01034 | 0.14087 | 6003 ft | 260 kts | 282° |
| 2026-05-07 10:55 | 51.01246 | 0.11800 | 5902 ft | 258 kts | 281° |
| 2026-05-07 10:55 | 51.01500 | 0.08974 | 5458 ft | 258 kts | 281° |
| 2026-05-07 10:55 | 51.01748 | 0.06154 | 5029 ft | 257 kts | 281° |
| 2026-05-07 10:56 | 51.01988 | 0.03341 | 4590 ft | 258 kts | 281° |
| 2026-05-07 10:56 | 51.02231 | 0.00524 | 4192 ft | 257 kts | 281° |
| 2026-05-07 10:56 | 51.02474 | -0.02268 | 4081 ft | 256 kts | 281° |
| 2026-05-07 10:56 | 51.02727 | -0.05112 | 4085 ft | 257 kts | 281° |
| 2026-05-07 10:57 | 51.02976 | -0.07893 | 4088 ft | 258 kts | 281° |
| 2026-05-07 10:57 | 51.03233 | -0.10704 | 4079 ft | 256 kts | 285° |
| 2026-05-07 10:57 | 51.03655 | -0.13450 | 4091 ft | 256 kts | 288° |
| 2026-05-07 10:57 | 51.04121 | -0.16176 | 4093 ft | 256 kts | 287° |
| 2026-05-07 10:58 | 51.04256 | -0.18995 | 4053 ft | 260 kts | 267° |
| 2026-05-07 10:58 | 51.03939 | -0.21827 | 3671 ft | 260 kts | 262° |
| 2026-05-07 10:58 | 51.03574 | -0.24648 | 3203 ft | 261 kts | 261° |
| 2026-05-07 10:58 | 51.03209 | -0.27454 | 2993 ft | 259 kts | 261° |
| 2026-05-07 10:59 | 51.02851 | -0.30204 | 3004 ft | 246 kts | 261° |
| 2026-05-07 10:59 | 51.02634 | -0.31985 | 3007 ft | 232 kts | 265° |
| 2026-05-07 10:59 | 51.02365 | -0.34429 | 3007 ft | 217 kts | 261° |
| 2026-05-07 10:59 | 51.02059 | -0.36716 | 2993 ft | 207 kts | 262° |
| 2026-05-07 11:00 | 51.01754 | -0.38904 | 3003 ft | 196 kts | 262° |
| 2026-05-07 11:00 | 51.01465 | -0.40960 | 3007 ft | 193 kts | 260° |
| 2026-05-07 11:00 | 51.01268 | -0.43038 | 2987 ft | 187 kts | 282° |
| 2026-05-07 11:00 | 51.01789 | -0.44812 | 3007 ft | 177 kts | 320° |
| 2026-05-07 11:01 | 51.02757 | -0.46001 | 3009 ft | 176 kts | 329° |
| 2026-05-07 11:01 | 51.03799 | -0.47054 | 3011 ft | 175 kts | 331° |
| 2026-05-07 11:01 | 51.04828 | -0.48063 | 3006 ft | 175 kts | 331° |
| 2026-05-07 11:01 | 51.05882 | -0.49092 | 3003 ft | 175 kts | 331° |
| 2026-05-07 11:02 | 51.06923 | -0.50109 | 3005 ft | 175 kts | 331° |
| 2026-05-07 11:02 | 51.07975 | -0.51057 | 2985 ft | 174 kts | 344° |
| 2026-05-07 11:02 | 51.09143 | -0.50994 | 3006 ft | 174 kts | 24° |
| 2026-05-07 11:02 | 51.10128 | -0.49870 | 3010 ft | 177 kts | 46° |
| 2026-05-07 11:03 | 51.10740 | -0.48163 | 3007 ft | 181 kts | 71° |
| 2026-05-07 11:03 | 51.11008 | -0.46265 | 2995 ft | 173 kts | 73° |
| 2026-05-07 11:03 | 51.11265 | -0.44453 | 2996 ft | 165 kts | 72° |
| 2026-05-07 11:03 | 51.11517 | -0.42678 | 3006 ft | 164 kts | 73° |
| 2026-05-07 11:04 | 51.11765 | -0.40919 | 2908 ft | 162 kts | 73° |
| 2026-05-07 11:04 | 51.12009 | -0.39176 | 2691 ft | 161 kts | 72° |
| 2026-05-07 11:04 | 51.12255 | -0.37427 | 2484 ft | 162 kts | 73° |
| 2026-05-07 11:04 | 51.12501 | -0.35667 | 2267 ft | 166 kts | 72° |
| 2026-05-07 11:05 | 51.12750 | -0.33888 | 2041 ft | 162 kts | 72° |
| 2026-05-07 11:05 | 51.12990 | -0.32159 | 1835 ft | 159 kts | 72° |
| 2026-05-07 11:05 | 51.13230 | -0.30441 | 1600 ft | 159 kts | 72° |
| 2026-05-07 11:05 | 51.13468 | -0.28736 | 1382 ft | 155 kts | 72° |
| 2026-05-07 11:06 | 51.13691 | -0.27118 | 1165 ft | 143 kts | 72° |
| 2026-05-07 11:06 | 51.13891 | -0.25692 | 981 ft | 136 kts | 73° |
| 2026-05-07 11:06 | 51.14107 | -0.24231 | 695 ft | 135 kts | 75° |
| 2026-05-07 11:06 | 51.14328 | -0.22787 | 534 ft | 134 kts | 78° |
| 2026-05-07 11:07 | 51.14510 | -0.21325 | 270 ft | 136 kts | 78° |
| 2026-05-07 11:07 | 51.14687 | -0.19953 | 211 ft | 87 kts | 78° |
| 2026-05-07 11:07 | 51.14781 | -0.19314 | 208 ft | 53 kts | 76° |
| 2026-05-07 11:07 | 51.14863 | -0.18685 | 208 ft | 79 kts | 72° |
| 2026-05-07 11:08 | 51.14987 | -0.17997 | 215 ft | 33 kts | 79° |
| 2026-05-07 11:08 | 51.15058 | -0.17799 | 213 ft | 9 kts | 56° |
| 2026-05-07 11:08 | 51.15073 | -0.17772 | 213 ft | 8 kts | 35° |
| 2026-05-07 11:08 | 51.15086 | -0.17764 | 208 ft | 6 kts | 17° |
| 2026-05-07 11:09 | 51.15147 | -0.17763 | 210 ft | 9 kts | 25° |
| 2026-05-07 11:09 | 51.15184 | -0.17701 | 211 ft | 7 kts | 75° |
| 2026-05-07 11:09 | 51.15192 | -0.17631 | 210 ft | 6 kts | 80° |
| 2026-05-07 11:09 | 51.15205 | -0.17509 | 210 ft | 31 kts | 80° |
| 2026-05-07 11:10 | 51.15303 | -0.17363 | 205 ft | 21 kts | 358° |
| 2026-05-07 11:10 | 51.15453 | -0.17411 | 211 ft | 23 kts | 346° |
| 2026-05-07 11:10 | 51.15585 | -0.17387 | 211 ft | 19 kts | 55° |
| 2026-05-07 11:10 | 51.15625 | -0.17184 | 208 ft | 20 kts | 79° |
| 2026-05-07 11:11 | 51.15614 | -0.17025 | 205 ft | 5 kts | 180° |
| 2026-05-07 11:11 | 51.15598 | -0.17020 | 209 ft | 5 kts | 169° |
| 2026-05-07 11:11 | 51.15567 | -0.17006 | 210 ft | 4 kts | 165° |
| 2026-05-07 11:11 | 51.15562 | -0.17004 | 208 ft | 0 kts | 165° |